This is the latest recevied weather packets stored in our database for station/object ED1ZAI-13. If no packets are shown the sender has not sent any weather packets the latest 10 day(s).
| Time | Temp. | Humidity | Pressure | Rain* | Wind** | Luminosity | Snow |
|---|---|---|---|---|---|---|---|
| 1777899830 | 11.67° C | 70% | 1011.6 hPa | 3.05 mm | - | - | - |
| 1777899229 | 12.22° C | 61% | 1011.3 hPa | 3.56 mm | - | - | - |
| 1777898628 | 15° C | 59% | 1011.3 hPa | 3.56 mm | - | - | - |
| 1777898030 | 11.67° C | 71% | 1011.6 hPa | 3.05 mm | - | - | - |
| 1777897430 | 11.11° C | 73% | 1011.6 hPa | 2.54 mm | - | - | - |
| 1777896828 | 11.11° C | 76% | 1011.6 hPa | 2.54 mm | - | - | - |
| 1777896228 | 8.33° C | 80% | 1011.6 hPa | 2.54 mm | - | - | - |
| 1777895630 | 6.67° C | 83% | 1012.1 hPa | 0.51 mm | - | - | - |
| 1777895029 | 9.44° C | 68% | 1011.6 hPa | 0 mm | - | - | - |
| 1777894430 | 10.56° C | 67% | 1011.2 hPa | 0 mm | - | - | - |
| 1777893830 | 11.11° C | 71% | 1011.1 hPa | 0 mm | - | - | - |
| 1777893230 | 10° C | 73% | 1011.2 hPa | 0 mm | - | - | - |
| 1777892629 | 10.56° C | 73% | 1011.2 hPa | 0 mm | - | - | - |
| 1777892029 | 11.67° C | 64% | 1011.1 hPa | 0 mm | - | - | - |
| 1777891429 | 12.22° C | 62% | 1010.9 hPa | 0 mm | - | - | - |
| 1777890828 | 12.78° C | 61% | 1010.9 hPa | 0 mm | - | - | - |
| 1777890230 | 12.78° C | 60% | 1011 hPa | 0.51 mm | - | - | - |
| 1777889630 | 13.89° C | 59% | 1010.9 hPa | 0.51 mm | - | - | - |
| 1777889030 | 12.78° C | 62% | 1011 hPa | 0.51 mm | - | - | - |
| 1777888429 | 12.78° C | 63% | 1011 hPa | 0.51 mm | - | - | - |
| 1777887829 | 12.78° C | 64% | 1011 hPa | 0.51 mm | - | - | - |
| 1777887229 | 12.22° C | 68% | 1011.2 hPa | 0.51 mm | - | - | - |
| 1777886630 | 10.56° C | 72% | 1011.2 hPa | 0 mm | - | - | - |
| 1777886030 | 12.78° C | 68% | 1011.2 hPa | 0 mm | - | - | - |
| 1777885430 | 11.67° C | 69% | 1011.2 hPa | 0 mm | - | - | - |
* Rain latest hour (hover to see other rain measurements)
** Current wind speed in m/s (hover to see current wind gust speed)